Time,TemperatureF,DewpointF,PressureIn,WindDirection,WindDirectionDegrees,WindSpeedMPH,WindSpeedGustMPH,Humidity,HourlyPrecipIn,Conditions,Clouds,dailyrainin,SoftwareType,DateUTC
2013-02-17 00:00:00,31.0,17.0,-100.00,SE,145,2.0,-999.0,57,0.00,,,0.00,,2013-02-17 06:00:00,
2013-02-17 00:31:00,31.0,17.0,-100.00,SE,145,2.0,-999.0,57,0.00,,,0.00,,2013-02-17 06:31:00,
2013-02-17 00:42:00,31.0,17.0,-100.00,SE,145,2.0,-999.0,57,0.00,,,0.00,,2013-02-17 06:42:00,
2013-02-17 00:52:00,31.0,17.0,-100.00,SE,145,2.0,-999.0,57,0.00,,,0.00,,2013-02-17 06:52:00,
2013-02-17 01:00:00,31.0,20.0,-100.00,SSE,154,1.0,-999.0,64,0.00,,,0.00,,2013-02-17 07:00:00,
2013-02-17 01:31:00,31.0,20.0,-100.00,SSE,154,1.0,-999.0,64,0.00,,,0.00,,2013-02-17 07:31:00,
2013-02-17 01:42:00,31.0,20.0,-100.00,SSE,154,1.0,-999.0,64,0.00,,,0.00,,2013-02-17 07:42:00,
2013-02-17 01:52:00,31.0,20.0,-100.00,SSE,154,1.0,-999.0,64,0.00,,,0.00,,2013-02-17 07:52:00,
2013-02-17 02:00:00,30.0,18.0,-100.00,SE,144,1.0,-999.0,61,0.00,,,0.00,,2013-02-17 08:00:00,
2013-02-17 02:31:00,30.0,18.0,-100.00,SE,144,1.0,-999.0,61,0.00,,,0.00,,2013-02-17 08:31:00,
2013-02-17 02:42:00,30.0,18.0,-100.00,SE,144,1.0,-999.0,61,0.00,,,0.00,,2013-02-17 08:42:00,
2013-02-17 02:52:00,30.0,18.0,-100.00,SE,144,1.0,-999.0,61,0.00,,,0.00,,2013-02-17 08:52:00,
2013-02-17 03:00:00,28.0,21.0,-100.00,SE,143,3.0,-999.0,73,0.00,,,0.00,,2013-02-17 09:00:00,
2013-02-17 03:31:00,28.0,21.0,-100.00,SE,143,3.0,-999.0,73,0.00,,,0.00,,2013-02-17 09:31:00,
2013-02-17 03:42:00,28.0,21.0,-100.00,SE,143,3.0,-999.0,73,0.00,,,0.00,,2013-02-17 09:42:00,
2013-02-17 03:52:00,28.0,21.0,-100.00,SE,143,3.0,-999.0,73,0.00,,,0.00,,2013-02-17 09:52:00,
2013-02-17 04:00:00,29.0,24.0,-100.00,SSE,163,1.0,-999.0,79,0.00,,,0.00,,2013-02-17 10:00:00,
2013-02-17 04:31:00,29.0,24.0,-100.00,SSE,163,1.0,-999.0,79,0.00,,,0.00,,2013-02-17 10:31:00,
2013-02-17 04:42:00,29.0,24.0,-100.00,SSE,163,1.0,-999.0,79,0.00,,,0.00,,2013-02-17 10:42:00,
2013-02-17 04:52:00,29.0,24.0,-100.00,SSE,163,1.0,-999.0,79,0.00,,,0.00,,2013-02-17 10:52:00,
2013-02-17 05:00:00,29.0,22.0,-100.00,South,188,2.0,-999.0,73,0.00,,,0.00,,2013-02-17 11:00:00,
2013-02-17 05:32:00,29.0,22.0,-100.00,South,188,2.0,-999.0,73,0.00,,,0.00,,2013-02-17 11:32:00,
2013-02-17 05:42:00,29.0,22.0,-100.00,South,188,2.0,-999.0,73,0.00,,,0.00,,2013-02-17 11:42:00,
2013-02-17 05:52:00,29.0,22.0,-100.00,South,188,2.0,-999.0,73,0.00,,,0.00,,2013-02-17 11:52:00,
2013-02-17 06:00:00,31.0,20.0,-100.00,SSW,212,2.0,-999.0,63,0.00,,,0.00,,2013-02-17 12:00:00,
2013-02-17 06:32:00,31.0,20.0,-100.00,SSW,212,2.0,-999.0,63,0.00,,,0.00,,2013-02-17 12:32:00,
2013-02-17 06:42:00,31.0,20.0,-100.00,SSW,212,2.0,-999.0,63,0.00,,,0.00,,2013-02-17 12:42:00,
2013-02-17 06:52:00,31.0,20.0,-100.00,SSW,212,2.0,-999.0,63,0.00,,,0.00,,2013-02-17 12:52:00,
2013-02-17 07:00:00,31.0,20.0,-100.00,SSW,207,2.0,-999.0,65,0.00,,,0.00,,2013-02-17 13:00:00,
2013-02-17 07:32:00,31.0,20.0,-100.00,SSW,207,2.0,-999.0,65,0.00,,,0.00,,2013-02-17 13:32:00,
2013-02-17 07:42:00,31.0,20.0,-100.00,SSW,207,2.0,-999.0,65,0.00,,,0.00,,2013-02-17 13:42:00,
2013-02-17 07:52:00,31.0,20.0,-100.00,SSW,207,2.0,-999.0,65,0.00,,,0.00,,2013-02-17 13:52:00,
2013-02-17 08:00:00,32.0,21.0,-100.00,SW,215,1.0,-999.0,63,0.00,,,0.00,,2013-02-17 14:00:00,
2013-02-17 08:32:00,32.0,21.0,-100.00,SW,215,1.0,-999.0,63,0.00,,,0.00,,2013-02-17 14:32:00,
2013-02-17 08:42:00,32.0,21.0,-100.00,SW,215,1.0,-999.0,63,0.00,,,0.00,,2013-02-17 14:42:00,
2013-02-17 08:53:00,32.0,21.0,-100.00,SW,215,1.0,-999.0,63,0.00,,,0.00,,2013-02-17 14:53:00,
2013-02-17 09:00:00,41.0,24.0,-100.00,South,177,1.0,-999.0,51,0.00,,,0.00,,2013-02-17 15:00:00,
2013-02-17 09:32:00,41.0,24.0,-100.00,South,177,1.0,-999.0,51,0.00,,,0.00,,2013-02-17 15:32:00,
2013-02-17 09:42:00,41.0,24.0,-100.00,South,177,1.0,-999.0,51,0.00,,,0.00,,2013-02-17 15:42:00,
2013-02-17 09:52:00,41.0,24.0,-100.00,South,177,1.0,-999.0,51,0.00,,,0.00,,2013-02-17 15:52:00,
2013-02-17 10:00:00,45.0,26.0,-100.00,SSE,167,2.0,-999.0,48,0.00,,,0.00,,2013-02-17 16:00:00,
2013-02-17 10:32:00,45.0,26.0,-100.00,SSE,167,2.0,-999.0,48,0.00,,,0.00,,2013-02-17 16:32:00,
2013-02-17 10:42:00,45.0,26.0,-100.00,SSE,167,2.0,-999.0,48,0.00,,,0.00,,2013-02-17 16:42:00,
2013-02-17 10:52:00,45.0,26.0,-100.00,SSE,167,2.0,-999.0,48,0.00,,,0.00,,2013-02-17 16:52:00,
2013-02-17 11:00:00,49.0,28.0,-100.00,SSE,160,3.0,-999.0,43,0.00,,,0.00,,2013-02-17 17:00:00,
2013-02-17 11:32:00,49.0,28.0,-100.00,SSE,160,3.0,-999.0,43,0.00,,,0.00,,2013-02-17 17:32:00,
2013-02-17 11:42:00,49.0,28.0,-100.00,SSE,160,3.0,-999.0,43,0.00,,,0.00,,2013-02-17 17:42:00,
2013-02-17 11:52:00,49.0,28.0,-100.00,SSE,160,3.0,-999.0,43,0.00,,,0.00,,2013-02-17 17:52:00,
2013-02-17 12:00:00,55.0,29.0,-100.00,South,169,3.0,-999.0,37,0.00,,,0.00,,2013-02-17 18:00:00,
2013-02-17 12:33:00,55.0,29.0,-100.00,South,169,3.0,-999.0,37,0.00,,,0.00,,2013-02-17 18:33:00,
2013-02-17 12:42:00,55.0,29.0,-100.00,South,169,3.0,-999.0,37,0.00,,,0.00,,2013-02-17 18:42:00,
2013-02-17 12:52:00,55.0,29.0,-100.00,South,169,3.0,-999.0,37,0.00,,,0.00,,2013-02-17 18:52:00,
2013-02-17 13:00:00,59.0,31.0,-100.00,South,180,4.0,-999.0,34,0.00,,,0.00,,2013-02-17 19:00:00,
2013-02-17 13:32:00,59.0,31.0,-100.00,South,180,4.0,-999.0,34,0.00,,,0.00,,2013-02-17 19:32:00,
2013-02-17 13:42:00,59.0,31.0,-100.00,South,180,4.0,-999.0,34,0.00,,,0.00,,2013-02-17 19:42:00,
2013-02-17 13:52:00,59.0,31.0,-100.00,South,180,4.0,-999.0,34,0.00,,,0.00,,2013-02-17 19:52:00,
2013-02-17 14:00:00,64.0,33.0,-100.00,South,178,5.0,-999.0,31,0.00,,,0.00,,2013-02-17 20:00:00,
2013-02-17 14:32:00,64.0,33.0,-100.00,South,178,5.0,-999.0,31,0.00,,,0.00,,2013-02-17 20:32:00,
2013-02-17 14:42:00,64.0,33.0,-100.00,South,178,5.0,-999.0,31,0.00,,,0.00,,2013-02-17 20:42:00,
2013-02-17 14:52:00,64.0,33.0,-100.00,South,178,5.0,-999.0,31,0.00,,,0.00,,2013-02-17 20:52:00,
2013-02-17 15:00:00,68.0,30.0,-100.00,South,177,6.0,-999.0,24,0.00,,,0.00,,2013-02-17 21:00:00,
2013-02-17 15:32:00,68.0,30.0,-100.00,South,177,6.0,-999.0,24,0.00,,,0.00,,2013-02-17 21:32:00,
2013-02-17 15:42:00,68.0,30.0,-100.00,South,177,6.0,-999.0,24,0.00,,,0.00,,2013-02-17 21:42:00,
2013-02-17 15:53:00,68.0,30.0,-100.00,South,177,6.0,-999.0,24,0.00,,,0.00,,2013-02-17 21:53:00,
2013-02-17 16:00:00,69.0,28.0,-100.00,South,180,6.0,-999.0,22,0.00,,,0.00,,2013-02-17 22:00:00,
2013-02-17 16:32:00,69.0,28.0,-100.00,South,180,6.0,-999.0,22,0.00,,,0.00,,2013-02-17 22:32:00,
2013-02-17 16:42:00,69.0,28.0,-100.00,South,180,6.0,-999.0,22,0.00,,,0.00,,2013-02-17 22:42:00,
2013-02-17 16:52:00,69.0,28.0,-100.00,South,180,6.0,-999.0,22,0.00,,,0.00,,2013-02-17 22:52:00,
2013-02-17 17:00:00,67.0,27.0,-100.00,South,172,6.0,-999.0,22,0.00,,,0.00,,2013-02-17 23:00:00,
2013-02-17 17:32:00,67.0,27.0,-100.00,South,172,6.0,-999.0,22,0.00,,,0.00,,2013-02-17 23:32:00,
2013-02-17 17:42:00,67.0,27.0,-100.00,South,172,6.0,-999.0,22,0.00,,,0.00,,2013-02-17 23:42:00,
2013-02-17 17:52:00,67.0,27.0,-100.00,South,172,6.0,-999.0,22,0.00,,,0.00,,2013-02-17 23:52:00,
2013-02-17 18:00:00,63.0,29.0,-100.00,South,173,5.0,-999.0,27,0.00,,,0.00,,2013-02-18 00:00:00,
2013-02-17 18:32:00,63.0,29.0,-100.00,South,173,5.0,-999.0,27,0.00,,,0.00,,2013-02-18 00:32:00,
2013-02-17 18:42:00,63.0,29.0,-100.00,South,173,5.0,-999.0,27,0.00,,,0.00,,2013-02-18 00:42:00,
2013-02-17 18:52:00,63.0,29.0,-100.00,South,173,5.0,-999.0,27,0.00,,,0.00,,2013-02-18 00:52:00,
2013-02-17 19:00:00,58.0,29.0,-100.00,South,177,4.0,-999.0,34,0.00,,,0.00,,2013-02-18 01:00:00,
2013-02-17 19:32:00,58.0,29.0,-100.00,South,177,4.0,-999.0,34,0.00,,,0.00,,2013-02-18 01:32:00,
2013-02-17 19:42:00,58.0,29.0,-100.00,South,177,4.0,-999.0,34,0.00,,,0.00,,2013-02-18 01:42:00,
2013-02-17 19:52:00,58.0,29.0,-100.00,South,177,4.0,-999.0,34,0.00,,,0.00,,2013-02-18 01:52:00,
2013-02-17 20:00:00,52.0,31.0,-100.00,South,177,3.0,-999.0,44,0.00,,,0.00,,2013-02-18 02:00:00,
2013-02-17 20:32:00,52.0,31.0,-100.00,South,177,3.0,-999.0,44,0.00,,,0.00,,2013-02-18 02:32:00,
2013-02-17 20:42:00,52.0,31.0,-100.00,South,177,3.0,-999.0,44,0.00,,,0.00,,2013-02-18 02:42:00,
2013-02-17 20:52:00,52.0,31.0,-100.00,South,177,3.0,-999.0,44,0.00,,,0.00,,2013-02-18 02:52:00,
2013-02-17 21:00:00,47.0,32.0,-100.00,South,173,3.0,-999.0,54,0.00,,,0.00,,2013-02-18 03:00:00,
2013-02-17 21:32:00,47.0,32.0,-100.00,South,173,3.0,-999.0,54,0.00,,,0.00,,2013-02-18 03:32:00,
2013-02-17 21:42:00,47.0,32.0,-100.00,South,173,3.0,-999.0,54,0.00,,,0.00,,2013-02-18 03:42:00,
2013-02-17 21:52:00,47.0,32.0,-100.00,South,173,3.0,-999.0,54,0.00,,,0.00,,2013-02-18 03:52:00,
2013-02-17 22:00:00,47.0,32.0,-100.00,South,185,3.0,-999.0,56,0.00,,,0.00,,2013-02-18 04:00:00,
2013-02-17 22:32:00,47.0,32.0,-100.00,South,185,3.0,-999.0,56,0.00,,,0.00,,2013-02-18 04:32:00,
2013-02-17 22:42:00,47.0,32.0,-100.00,South,185,3.0,-999.0,56,0.00,,,0.00,,2013-02-18 04:42:00,
2013-02-17 22:52:00,47.0,32.0,-100.00,South,185,3.0,-999.0,56,0.00,,,0.00,,2013-02-18 04:52:00,
2013-02-17 23:00:00,47.0,33.0,-100.00,SSW,193,3.0,-999.0,59,0.00,,,0.00,,2013-02-18 05:00:00,
2013-02-17 23:32:00,47.0,33.0,-100.00,SSW,193,3.0,-999.0,59,0.00,,,0.00,,2013-02-18 05:32:00,
2013-02-17 23:42:00,47.0,33.0,-100.00,SSW,193,3.0,-999.0,59,0.00,,,0.00,,2013-02-18 05:42:00,
2013-02-17 23:52:00,47.0,33.0,-100.00,SSW,193,3.0,-999.0,59,0.00,,,0.00,,2013-02-18 05:52:00,